createdAt,value
2019-04-13T00:01:24.965Z,0.8
2019-04-13T00:06:27.353Z,0.8
2019-04-13T00:11:29.582Z,0.8
2019-04-13T00:16:31.806Z,0.7
2019-04-13T00:21:33.994Z,0.7
2019-04-13T00:26:36.398Z,0.7
2019-04-13T00:31:38.692Z,0.7
2019-04-13T00:36:41.133Z,0.7
2019-04-13T00:41:43.331Z,0.5
2019-04-13T00:46:45.546Z,0.5
2019-04-13T00:51:47.854Z,0.5
2019-04-13T00:56:50.089Z,0.5
2019-04-13T01:01:52.417Z,0.4
2019-04-13T01:06:54.856Z,0.3
2019-04-13T01:11:57.000Z,0.3
2019-04-13T01:16:59.212Z,0.2
2019-04-13T01:22:01.633Z,0.2
2019-04-13T01:27:04.032Z,0.2
2019-04-13T01:32:06.309Z,0.1
2019-04-13T01:37:08.488Z,0.1
2019-04-13T01:42:10.771Z,0.2
2019-04-13T01:47:13.096Z,0.2
2019-04-13T01:52:15.422Z,0.1
2019-04-13T01:57:17.580Z,0.1
2019-04-13T02:02:19.979Z,0.1
2019-04-13T02:07:22.276Z,0
2019-04-13T02:12:24.556Z,-0.1
2019-04-13T02:17:26.852Z,0
2019-04-13T02:22:29.031Z,-0.1
2019-04-13T02:27:31.370Z,-0.1
2019-04-13T02:32:33.806Z,-0.2
2019-04-13T02:37:35.985Z,-0.3
2019-04-13T02:42:38.309Z,-0.3
2019-04-13T02:47:40.807Z,-0.3
2019-04-13T02:52:42.966Z,-0.3
2019-04-13T02:57:45.191Z,-0.2
2019-04-13T03:02:47.513Z,-0.2
2019-04-13T03:07:50.984Z,-0.2
2019-04-13T03:12:52.034Z,-0.2
2019-04-13T03:17:54.495Z,-0.2
2019-04-13T03:22:56.781Z,-0.2
2019-04-13T03:27:58.974Z,-0.3
2019-04-13T03:33:01.361Z,-0.4
2019-04-13T03:38:03.635Z,-0.4
2019-04-13T03:43:05.864Z,-0.5
2019-04-13T03:48:08.131Z,-0.5
2019-04-13T03:53:10.419Z,-0.5
2019-04-13T03:58:12.681Z,-0.5
2019-04-13T04:03:14.955Z,-0.6
2019-04-13T04:08:17.234Z,-0.6
2019-04-13T04:13:19.560Z,-0.7
2019-04-13T04:18:21.893Z,-0.7
2019-04-13T04:23:24.224Z,-0.7
2019-04-13T04:28:26.551Z,-0.7
2019-04-13T04:33:28.808Z,-0.7
2019-04-13T04:38:31.130Z,-0.7
2019-04-13T04:43:33.437Z,-0.7
2019-04-13T04:48:35.751Z,-0.8
2019-04-13T04:53:37.994Z,-0.8
2019-04-13T04:58:40.302Z,-0.8
2019-04-13T05:03:42.622Z,-0.8
2019-04-13T05:08:44.806Z,-0.8
2019-04-13T05:13:47.144Z,-0.7
2019-04-13T05:18:49.377Z,-0.6
2019-04-13T05:23:51.722Z,-0.5
2019-04-13T05:28:53.887Z,-0.4
2019-04-13T05:33:56.310Z,-0.2
2019-04-13T05:38:58.598Z,0
2019-04-13T05:44:00.867Z,0.2
2019-04-13T05:49:03.301Z,0.5
2019-04-13T05:54:05.491Z,0.9
2019-04-13T05:59:07.833Z,1.3
2019-04-13T06:04:10.071Z,1.5
2019-04-13T06:09:12.755Z,1.8
2019-04-13T06:14:14.789Z,2.1
2019-04-13T06:19:16.975Z,2.4
2019-04-13T06:24:21.460Z,2.7
2019-04-13T06:29:21.590Z,3
2019-04-13T06:34:23.885Z,3.3
2019-04-13T06:39:26.083Z,3.6
2019-04-13T06:44:32.168Z,3.9
2019-04-13T06:49:30.635Z,4.2
2019-04-13T06:54:32.900Z,4.5
2019-04-13T06:59:36.386Z,4.8
2019-04-13T07:04:40.422Z,5.2
2019-04-13T07:09:40.534Z,5.4
2019-04-13T07:14:48.182Z,5.6
2019-04-13T07:19:49.409Z,5.6
2019-04-13T07:24:51.647Z,5.9
2019-04-13T07:29:53.856Z,6.2
2019-04-13T07:34:56.238Z,6.5
2019-04-13T07:39:58.461Z,6.4
2019-04-13T07:45:00.764Z,6.8
2019-04-13T07:50:03.103Z,6.9
2019-04-13T07:55:05.366Z,6.8
2019-04-13T08:00:07.751Z,6.9
2019-04-13T08:05:10.212Z,6.8
2019-04-13T08:10:12.233Z,6.9
2019-04-13T08:15:14.614Z,7.3
2019-04-13T08:20:16.836Z,7.2
2019-04-13T08:25:19.122Z,7.5
2019-04-13T08:30:21.416Z,7.9
2019-04-13T08:35:23.744Z,7.9
2019-04-13T08:40:26.017Z,7.5
2019-04-13T08:45:28.441Z,7.5
2019-04-13T08:50:30.696Z,7.7
2019-04-13T08:55:32.845Z,7.6
2019-04-13T09:00:35.304Z,7.9
2019-04-13T09:05:37.592Z,7.9
2019-04-13T09:10:39.834Z,8.3
2019-04-13T09:15:45.615Z,8
2019-04-13T09:20:45.580Z,8.1
2019-04-13T09:25:46.740Z,8.2
2019-04-13T09:30:52.118Z,8.4
2019-04-13T09:35:51.312Z,8.7
2019-04-13T09:40:53.807Z,9
2019-04-13T09:45:55.814Z,8.8
2019-04-13T09:50:58.087Z,9.1
2019-04-13T09:56:02.599Z,8.9
2019-04-13T10:01:02.988Z,9.2
2019-04-13T10:06:04.998Z,9
2019-04-13T10:11:07.389Z,9
2019-04-13T10:16:09.649Z,8.5
2019-04-13T10:21:13.165Z,9
2019-04-13T10:26:15.951Z,9.4
2019-04-13T10:31:16.494Z,10
2019-04-13T10:36:18.769Z,10.1
2019-04-13T10:41:21.056Z,9.8
2019-04-13T10:46:23.319Z,10.5
2019-04-13T10:51:25.740Z,11.1
2019-04-13T10:56:27.955Z,11.9
2019-04-13T11:01:30.274Z,11.6
2019-04-13T11:06:32.679Z,11.6
2019-04-13T11:11:34.769Z,10.1
2019-04-13T11:16:37.210Z,9.1
2019-04-13T11:21:39.439Z,8.2
2019-04-13T11:26:41.761Z,8.7
2019-04-13T11:31:44.105Z,9.1
2019-04-13T11:36:46.374Z,8.8
2019-04-13T11:41:48.657Z,8.4
2019-04-13T11:46:50.842Z,9.3
2019-04-13T11:51:53.176Z,9.5
2019-04-13T11:56:55.558Z,10.4
2019-04-13T12:01:57.866Z,10.8
2019-04-13T12:07:00.012Z,10.3
2019-04-13T12:12:02.369Z,9.7
2019-04-13T12:17:04.725Z,8.7
2019-04-13T12:22:06.961Z,8.2
2019-04-13T12:27:09.233Z,8.1
2019-04-13T12:32:11.600Z,7.9
2019-04-13T12:37:13.823Z,8.1
2019-04-13T12:42:16.111Z,7.8
2019-04-13T12:47:18.555Z,7.8
2019-04-13T12:52:20.852Z,7.7
2019-04-13T12:57:23.013Z,7.8
2019-04-13T13:02:25.273Z,9.7
2019-04-13T13:07:27.618Z,10.6
2019-04-13T13:12:30.035Z,10.5
2019-04-13T13:17:32.272Z,9.5
2019-04-13T13:22:34.461Z,8.3
2019-04-13T13:27:40.697Z,8.5
2019-04-13T13:32:39.147Z,9
2019-04-13T13:37:41.438Z,9
2019-04-13T13:42:43.831Z,8.6
2019-04-13T13:47:46.136Z,8.3
2019-04-13T13:52:48.192Z,8.7
2019-04-13T13:57:50.548Z,8.5
2019-04-13T14:02:52.850Z,9.4
2019-04-13T14:07:55.146Z,10.6
2019-04-13T14:12:57.446Z,11.2
2019-04-13T14:17:59.780Z,10.5
2019-04-13T14:23:01.945Z,9.3
2019-04-13T14:28:04.389Z,8.4
2019-04-13T14:33:06.529Z,8
2019-04-13T14:38:08.917Z,7.9
2019-04-13T14:43:11.192Z,8.8
2019-04-13T14:48:13.782Z,9.7
2019-04-13T14:53:15.712Z,9.9
2019-04-13T14:58:18.050Z,9.1
2019-04-13T15:03:20.303Z,8.2
2019-04-13T15:08:22.721Z,8.5
2019-04-13T15:13:25.254Z,10.1
2019-04-13T15:18:28.451Z,11.1
2019-04-13T15:23:30.004Z,11.4
2019-04-13T15:28:34.964Z,11
2019-04-13T15:33:34.992Z,10.4
2019-04-13T15:38:37.358Z,9.5
2019-04-13T15:43:39.402Z,9
2019-04-13T15:48:41.095Z,9.5
2019-04-13T15:53:43.230Z,9.6
2019-04-13T15:58:46.645Z,9.1
2019-04-13T16:03:48.869Z,8.7
2019-04-13T16:08:51.229Z,8.5
2019-04-13T16:13:52.438Z,8.5
2019-04-13T16:18:54.725Z,8.5
2019-04-13T16:23:57.064Z,9.1
2019-04-13T16:28:59.362Z,9.8
2019-04-13T16:34:02.996Z,9
2019-04-13T16:39:09.734Z,7.9
2019-04-13T16:44:06.229Z,7.4
2019-04-13T16:49:14.635Z,7
2019-04-13T16:54:10.800Z,6.7
2019-04-13T16:59:13.604Z,6.5
2019-04-13T17:04:15.534Z,6.5
2019-04-13T17:09:18.469Z,6.5
2019-04-13T17:14:20.475Z,6.3
2019-04-13T17:19:22.277Z,6.1
2019-04-13T17:24:25.669Z,6.1
2019-04-13T17:29:27.456Z,6
2019-04-13T17:34:29.886Z,5.8
2019-04-13T17:39:31.744Z,5.7
2019-04-13T17:44:33.863Z,5.5
2019-04-13T17:49:36.377Z,5.3
2019-04-13T17:54:39.541Z,5.1
2019-04-13T17:59:40.817Z,5
2019-04-13T18:04:43.668Z,4.8
2019-04-13T18:09:45.732Z,4.6
2019-04-13T18:14:48.558Z,4.6
2019-04-13T18:19:50.772Z,4.5
2019-04-13T18:24:53.349Z,4.4
2019-04-13T18:30:05.177Z,4.3
2019-04-13T18:34:56.647Z,4.2
2019-04-13T18:39:59.466Z,4.1
2019-04-13T18:45:01.836Z,4
2019-04-13T18:50:03.909Z,3.9
2019-04-13T18:55:06.229Z,3.8
2019-04-13T19:00:09.324Z,3.7
2019-04-13T19:05:10.478Z,3.6
2019-04-13T19:10:12.817Z,3.5
2019-04-13T19:15:15.002Z,3.5
2019-04-13T19:20:17.394Z,3.3
2019-04-13T19:25:19.779Z,3.3
2019-04-13T19:30:22.020Z,3.2
2019-04-13T19:35:24.250Z,3.3
2019-04-13T19:40:26.792Z,3.2
2019-04-13T19:45:28.751Z,3.2
2019-04-13T19:50:31.082Z,3.2
2019-04-13T19:55:33.456Z,3.2
2019-04-13T20:00:35.847Z,3.2
2019-04-13T20:05:38.060Z,3.1
2019-04-13T20:10:40.245Z,3.1
2019-04-13T20:15:42.634Z,3
2019-04-13T20:20:44.799Z,3
2019-04-13T20:25:48.250Z,2.9
2019-04-13T20:30:49.878Z,2.8
2019-04-13T20:36:00.630Z,2.7
2019-04-13T20:40:55.397Z,2.5
2019-04-13T20:45:57.416Z,2.5
2019-04-13T20:50:58.865Z,2.4
2019-04-13T20:56:07.698Z,2.3
2019-04-13T21:06:09.338Z,2.3
2019-04-13T21:11:11.530Z,2.2
2019-04-13T21:16:14.870Z,2.2
2019-04-13T21:21:17.088Z,2.2
2019-04-13T21:26:21.038Z,2.1
2019-04-13T21:31:21.753Z,2.1
2019-04-13T21:36:23.984Z,2
2019-04-13T21:41:26.122Z,1.9
2019-04-13T21:46:28.482Z,1.8
2019-04-13T21:51:31.139Z,1.7
2019-04-13T21:56:32.425Z,1.6
2019-04-13T22:01:34.742Z,1.6
2019-04-13T22:06:37.149Z,1.5
2019-04-13T22:11:39.003Z,1.4
2019-04-13T22:16:41.427Z,1.4
2019-04-13T22:21:43.854Z,1.3
2019-04-13T22:26:46.360Z,1.2
2019-04-13T22:31:48.405Z,1.2
2019-04-13T22:36:50.568Z,1.1
2019-04-13T22:41:52.800Z,1.1
2019-04-13T22:46:55.247Z,1
2019-04-13T22:51:57.576Z,0.9
2019-04-13T22:56:59.722Z,0.9
2019-04-13T23:02:02.053Z,0.9
2019-04-13T23:07:04.358Z,0.8
2019-04-13T23:12:07.102Z,0.8
2019-04-13T23:17:09.424Z,0.8
2019-04-13T23:22:12.295Z,0.8
2019-04-13T23:27:13.575Z,0.8
2019-04-13T23:32:16.378Z,0.7
2019-04-13T23:37:19.045Z,0.6
2019-04-13T23:42:20.396Z,0.6
2019-04-13T23:47:22.957Z,0.5
2019-04-13T23:52:26.009Z,0.4
2019-04-13T23:57:27.262Z,0.4
